createdAt,value
2017-09-18T00:02:24.725Z,11.23
2017-09-18T00:04:52.327Z,10.97
2017-09-18T00:07:19.964Z,10.80
2017-09-18T00:09:47.552Z,10.80
2017-09-18T00:12:15.166Z,10.93
2017-09-18T00:14:42.789Z,11.50
2017-09-18T00:17:10.421Z,11.60
2017-09-18T00:19:38.058Z,11.20
2017-09-18T00:22:05.639Z,11.93
2017-09-18T00:24:33.236Z,11.07
2017-09-18T00:27:01.092Z,10.83
2017-09-18T00:29:28.687Z,10.87
2017-09-18T00:31:56.327Z,11.73
2017-09-18T00:34:23.923Z,11.43
2017-09-18T00:36:51.503Z,10.90
2017-09-18T00:39:19.139Z,11.13
2017-09-18T00:41:46.720Z,10.87
2017-09-18T00:44:14.371Z,10.87
2017-09-18T00:46:41.943Z,10.50
2017-09-18T00:49:09.543Z,10.07
2017-09-18T00:51:37.215Z,10.30
2017-09-18T00:54:04.803Z,10.47
2017-09-18T00:56:33.472Z,10.57
2017-09-18T00:59:01.066Z,10.40
2017-09-18T01:01:28.923Z,10.40
2017-09-18T01:03:56.540Z,10.30
2017-09-18T01:06:24.415Z,10.60
2017-09-18T01:08:52.038Z,10.23
2017-09-18T01:11:19.635Z,10.40
2017-09-18T01:13:47.234Z,10.40
2017-09-18T01:16:14.985Z,10.17
2017-09-18T01:18:42.943Z,9.63
2017-09-18T01:21:10.581Z,10.20
2017-09-18T01:23:38.174Z,10.17
2017-09-18T01:26:05.770Z,10.50
2017-09-18T01:28:33.397Z,10.33
2017-09-18T01:31:00.992Z,11.10
2017-09-18T01:33:28.615Z,9.97
2017-09-18T01:35:56.278Z,10.40
2017-09-18T01:38:24.144Z,10.00
2017-09-18T01:40:51.815Z,10.70
2017-09-18T01:43:19.407Z,9.90
2017-09-18T01:45:47.135Z,10.27
2017-09-18T01:48:14.724Z,10.07
2017-09-18T01:50:42.324Z,10.10
2017-09-18T01:53:09.948Z,10.80
2017-09-18T01:55:37.534Z,10.20
2017-09-18T01:58:05.229Z,10.53
2017-09-18T02:00:33.107Z,10.37
2017-09-18T02:03:00.759Z,10.83
2017-09-18T02:05:28.372Z,9.93
2017-09-18T02:07:56.252Z,10.37
2017-09-18T02:10:23.880Z,10.67
2017-09-18T02:12:51.490Z,9.97
2017-09-18T02:15:19.092Z,9.90
2017-09-18T02:17:46.783Z,10.30
2017-09-18T02:20:14.386Z,10.43
2017-09-18T02:22:42.028Z,10.37
2017-09-18T02:25:09.608Z,11.17
2017-09-18T02:27:37.214Z,10.80
2017-09-18T02:30:04.866Z,10.00
2017-09-18T02:32:32.486Z,10.90
2017-09-18T02:35:00.163Z,10.83
2017-09-18T02:37:27.768Z,10.30
2017-09-18T02:39:55.372Z,10.90
2017-09-18T02:42:22.988Z,10.07
2017-09-18T02:44:50.588Z,10.57
2017-09-18T02:47:18.401Z,10.87
2017-09-18T02:49:46.033Z,10.60
2017-09-18T02:52:13.936Z,10.20
2017-09-18T02:54:41.519Z,10.50
2017-09-18T02:57:09.149Z,10.20
2017-09-18T02:59:36.759Z,10.57
2017-09-18T03:02:04.411Z,10.10
2017-09-18T03:04:32.043Z,11.13
2017-09-18T03:06:59.629Z,10.80
2017-09-18T03:09:27.392Z,11.27
2017-09-18T03:11:55.016Z,11.03
2017-09-18T03:14:22.600Z,10.70
2017-09-18T03:16:50.181Z,11.03
2017-09-18T03:19:17.838Z,11.13
2017-09-18T03:21:45.449Z,10.97
2017-09-18T03:24:13.083Z,12.00
2017-09-18T03:26:40.686Z,11.40
2017-09-18T03:29:08.260Z,10.73
2017-09-18T03:31:35.867Z,10.60
2017-09-18T03:34:03.463Z,12.33
2017-09-18T03:36:31.093Z,10.60
2017-09-18T03:38:58.718Z,11.07
2017-09-18T03:41:26.314Z,10.73
2017-09-18T03:43:54.137Z,11.50
2017-09-18T03:46:21.743Z,11.07
2017-09-18T03:48:49.364Z,11.77
2017-09-18T03:51:16.952Z,11.63
2017-09-18T03:53:44.546Z,11.33
2017-09-18T03:56:12.164Z,11.47
2017-09-18T03:58:39.761Z,11.93
2017-09-18T04:01:07.387Z,11.53
2017-09-18T04:03:35.016Z,11.40
2017-09-18T04:06:02.613Z,11.40
2017-09-18T04:08:30.230Z,11.67
2017-09-18T04:10:57.824Z,11.70
2017-09-18T04:13:25.492Z,11.80
2017-09-18T04:15:53.109Z,11.90
2017-09-18T04:18:20.927Z,11.80
2017-09-18T04:20:48.573Z,11.70
2017-09-18T04:23:16.162Z,11.43
2017-09-18T04:25:43.804Z,12.27
2017-09-18T04:28:11.416Z,12.80
2017-09-18T04:30:39.013Z,12.47
2017-09-18T04:33:06.894Z,11.80
2017-09-18T04:35:34.723Z,12.70
2017-09-18T04:38:02.348Z,12.60
2017-09-18T04:40:30.294Z,11.90
2017-09-18T04:42:57.900Z,12.77
2017-09-18T04:45:25.621Z,12.07
2017-09-18T04:47:53.223Z,12.33
2017-09-18T04:50:20.864Z,12.47
2017-09-18T04:52:48.459Z,12.50
2017-09-18T04:55:16.070Z,12.67
2017-09-18T04:57:43.735Z,13.53
2017-09-18T05:00:11.324Z,12.47
2017-09-18T05:02:38.959Z,13.43
2017-09-18T05:05:06.548Z,13.23
2017-09-18T05:07:34.119Z,12.90
2017-09-18T05:10:01.737Z,12.70
2017-09-18T05:12:29.330Z,12.60
2017-09-18T05:14:56.976Z,13.57
2017-09-18T05:17:24.561Z,13.00
2017-09-18T05:19:52.156Z,13.00
2017-09-18T05:22:19.779Z,12.93
2017-09-18T05:24:47.361Z,12.97
2017-09-18T05:27:15.000Z,12.73
2017-09-18T05:29:42.598Z,12.60
2017-09-18T05:32:10.199Z,12.93
2017-09-18T05:34:37.816Z,13.33
2017-09-18T05:37:05.452Z,12.63
2017-09-18T05:39:33.086Z,13.00
2017-09-18T05:42:00.681Z,13.73
2017-09-18T05:44:28.268Z,13.10
2017-09-18T05:46:55.884Z,13.17
2017-09-18T05:49:23.470Z,13.67
2017-09-18T05:51:51.090Z,13.67
2017-09-18T05:54:18.685Z,14.33
2017-09-18T05:56:46.260Z,13.73
2017-09-18T05:59:14.186Z,13.50
2017-09-18T06:01:42.565Z,14.83
2017-09-18T06:04:10.228Z,13.70
2017-09-18T06:06:37.891Z,13.30
2017-09-18T06:09:05.501Z,13.77
2017-09-18T06:11:33.123Z,13.73
2017-09-18T06:14:00.732Z,13.67
2017-09-18T06:16:28.360Z,14.00
2017-09-18T06:18:56.213Z,14.40
2017-09-18T06:21:23.789Z,13.90
2017-09-18T06:23:53.870Z,13.27
2017-09-18T06:26:21.455Z,13.80
2017-09-18T06:28:49.095Z,14.87
2017-09-18T06:31:16.689Z,14.93
2017-09-18T06:33:44.300Z,14.03
2017-09-18T06:36:11.912Z,14.67
2017-09-18T06:38:39.507Z,13.67
2017-09-18T06:41:07.131Z,13.40
2017-09-18T06:43:34.716Z,13.43
2017-09-18T06:46:02.315Z,12.50
2017-09-18T06:48:29.934Z,12.70
2017-09-18T06:50:57.778Z,13.87
2017-09-18T06:53:25.735Z,13.70
2017-09-18T06:55:53.335Z,12.17
2017-09-18T06:58:20.956Z,13.00
2017-09-18T07:00:48.560Z,12.97
2017-09-18T07:03:16.146Z,13.70
2017-09-18T07:05:43.774Z,12.53
2017-09-18T07:08:11.361Z,11.90
2017-09-18T07:10:38.934Z,11.83
2017-09-18T07:13:06.836Z,12.47
2017-09-18T07:15:34.414Z,12.00
2017-09-18T07:18:02.465Z,12.10
2017-09-18T07:20:30.220Z,12.13
2017-09-18T07:22:57.796Z,11.97
2017-09-18T07:25:25.412Z,12.80
2017-09-18T07:27:54.075Z,12.10
2017-09-18T07:30:22.660Z,12.37
2017-09-18T07:32:50.256Z,12.33
2017-09-18T07:35:17.836Z,12.57
2017-09-18T07:37:45.445Z,11.73
2017-09-18T07:40:13.039Z,11.23
2017-09-18T07:42:40.669Z,11.23
2017-09-18T07:45:08.321Z,10.90
2017-09-18T07:47:35.898Z,11.00
2017-09-18T07:50:03.837Z,10.93
2017-09-18T07:52:31.439Z,11.13
2017-09-18T07:54:59.064Z,10.70
2017-09-18T07:57:26.649Z,11.07
2017-09-18T07:59:54.235Z,11.43
2017-09-18T08:02:21.863Z,10.50
2017-09-18T08:04:49.707Z,10.33
2017-09-18T08:07:17.388Z,10.70
2017-09-18T08:09:44.973Z,11.20
2017-09-18T08:12:12.582Z,10.80
2017-09-18T08:14:40.240Z,10.80
2017-09-18T08:17:07.864Z,10.37
2017-09-18T08:19:35.475Z,11.60
2017-09-18T08:22:03.347Z,11.40
2017-09-18T08:24:31.166Z,11.07
2017-09-18T08:26:58.767Z,11.83
2017-09-18T08:29:26.370Z,11.63
2017-09-18T08:31:54.235Z,10.60
2017-09-18T08:34:21.834Z,11.13
2017-09-18T08:36:49.459Z,12.13
2017-09-18T08:39:17.067Z,12.10
2017-09-18T08:41:44.656Z,11.80
2017-09-18T08:44:12.281Z,11.87
2017-09-18T08:46:39.867Z,11.60
2017-09-18T08:49:07.462Z,11.10
2017-09-18T08:51:35.095Z,11.10
2017-09-18T08:54:02.686Z,11.63
2017-09-18T08:56:30.736Z,11.40
2017-09-18T08:58:58.310Z,11.43
2017-09-18T09:01:25.898Z,10.93
2017-09-18T09:03:53.507Z,11.40
2017-09-18T09:06:21.112Z,11.33
2017-09-18T09:08:48.752Z,11.07
2017-09-18T09:11:16.633Z,10.87
2017-09-18T09:13:44.248Z,11.33
2017-09-18T09:16:11.869Z,11.47
2017-09-18T09:18:39.484Z,10.70
2017-09-18T09:21:07.115Z,10.77
2017-09-18T09:23:35.029Z,10.33
2017-09-18T09:26:02.601Z,10.90
2017-09-18T09:28:30.231Z,10.70
2017-09-18T09:30:57.820Z,10.40
2017-09-18T09:33:25.443Z,10.20
2017-09-18T09:35:53.027Z,9.90
2017-09-18T09:38:20.611Z,10.07
2017-09-18T09:40:48.466Z,10.00
2017-09-18T09:43:16.062Z,10.17
2017-09-18T09:45:44.371Z,9.90
2017-09-18T09:48:11.952Z,10.37
2017-09-18T09:50:39.544Z,9.90
2017-09-18T09:53:07.499Z,9.97
2017-09-18T09:55:35.090Z,10.90
2017-09-18T09:58:02.725Z,10.40
2017-09-18T10:00:30.302Z,10.20
2017-09-18T10:02:58.150Z,10.70
2017-09-18T10:05:25.771Z,10.13
2017-09-18T10:07:53.447Z,10.20
2017-09-18T10:10:21.052Z,9.80
2017-09-18T10:12:48.682Z,10.23
2017-09-18T10:15:16.262Z,10.17
2017-09-18T10:17:43.850Z,10.10
2017-09-18T10:20:11.466Z,9.50
2017-09-18T10:22:39.347Z,9.00
2017-09-18T10:25:06.936Z,9.40
2017-09-18T10:27:34.539Z,8.57
2017-09-18T10:30:02.339Z,8.67
2017-09-18T10:32:30.060Z,9.07
2017-09-18T10:34:57.972Z,8.73
2017-09-18T10:37:25.556Z,9.00
2017-09-18T10:39:53.172Z,8.50
2017-09-18T10:42:20.758Z,8.80
2017-09-18T10:44:48.376Z,9.00
2017-09-18T10:47:15.960Z,8.83
2017-09-18T10:49:43.542Z,8.93
2017-09-18T10:52:11.152Z,8.60
2017-09-18T10:54:38.768Z,8.90
2017-09-18T10:57:06.400Z,8.80
2017-09-18T10:59:34.030Z,9.70
2017-09-18T11:02:01.958Z,8.70
2017-09-18T11:04:29.587Z,8.60
2017-09-18T11:06:57.175Z,8.80
2017-09-18T11:09:24.827Z,9.27
2017-09-18T11:11:52.420Z,9.20
2017-09-18T11:14:20.017Z,8.50
2017-09-18T11:16:47.625Z,8.87
2017-09-18T11:19:15.509Z,8.70
2017-09-18T11:21:43.120Z,8.80
2017-09-18T11:24:10.749Z,8.87
2017-09-18T11:26:38.336Z,9.07
2017-09-18T11:29:05.969Z,8.30
2017-09-18T11:31:33.554Z,9.10
2017-09-18T11:34:01.168Z,8.80
2017-09-18T11:36:29.039Z,8.67
2017-09-18T11:38:56.624Z,9.00
2017-09-18T11:41:24.238Z,8.87
2017-09-18T11:43:51.834Z,8.80
2017-09-18T11:46:19.471Z,8.80
2017-09-18T11:48:47.056Z,8.50
2017-09-18T11:51:14.628Z,8.90
2017-09-18T11:53:42.232Z,8.80
2017-09-18T11:56:09.836Z,8.70
2017-09-18T11:58:37.457Z,8.80
2017-09-18T12:01:05.057Z,8.53
2017-09-18T12:03:32.923Z,8.37
2017-09-18T12:06:00.540Z,8.70
2017-09-18T12:08:28.114Z,8.37
2017-09-18T12:10:55.737Z,8.43
2017-09-18T12:13:23.344Z,8.40
2017-09-18T12:15:51.041Z,8.50
2017-09-18T12:18:18.663Z,8.50
2017-09-18T12:20:46.258Z,8.80
2017-09-18T12:23:13.883Z,8.10
2017-09-18T12:25:41.465Z,8.60
2017-09-18T12:28:09.048Z,8.10
2017-09-18T12:30:36.657Z,7.90
2017-09-18T12:33:04.251Z,7.80
2017-09-18T12:35:31.883Z,7.87
2017-09-18T12:37:59.464Z,8.10
2017-09-18T12:40:27.045Z,7.90
2017-09-18T12:42:54.664Z,7.90
2017-09-18T12:45:22.250Z,8.43
2017-09-18T12:47:49.911Z,8.10
2017-09-18T12:50:17.564Z,8.47
2017-09-18T12:52:45.146Z,8.40
2017-09-18T12:55:12.769Z,8.43
2017-09-18T12:57:40.355Z,8.73
2017-09-18T13:00:07.988Z,8.30
2017-09-18T13:02:35.604Z,8.03
2017-09-18T13:05:03.207Z,8.60
2017-09-18T13:07:30.824Z,8.00
2017-09-18T13:09:58.419Z,8.70
2017-09-18T13:12:26.060Z,8.60
2017-09-18T13:14:53.683Z,8.23
2017-09-18T13:17:21.289Z,8.40
2017-09-18T13:19:49.255Z,8.50
2017-09-18T13:22:17.162Z,8.73
2017-09-18T13:24:45.120Z,8.90
2017-09-18T13:27:12.735Z,8.10
2017-09-18T13:29:40.429Z,8.20
2017-09-18T13:32:08.045Z,8.20
2017-09-18T13:34:35.793Z,8.30
2017-09-18T13:37:03.679Z,8.17
2017-09-18T13:39:32.670Z,8.40
2017-09-18T13:42:00.302Z,8.40
2017-09-18T13:44:27.968Z,8.30
2017-09-18T13:46:55.543Z,8.47
2017-09-18T13:49:23.155Z,8.77
2017-09-18T13:51:50.744Z,8.63
2017-09-18T13:54:18.352Z,8.30
2017-09-18T13:56:46.032Z,8.70
2017-09-18T13:59:13.608Z,8.63
2017-09-18T14:01:41.375Z,8.40
2017-09-18T14:04:09.782Z,8.50
2017-09-18T14:06:37.361Z,8.40
2017-09-18T14:09:04.990Z,8.80
2017-09-18T14:11:32.617Z,8.70
2017-09-18T14:14:00.271Z,8.50
2017-09-18T14:16:27.856Z,10.20
2017-09-18T14:18:55.452Z,8.83
2017-09-18T14:21:23.095Z,8.53
2017-09-18T14:23:50.689Z,8.57
2017-09-18T14:26:18.310Z,8.60
2017-09-18T14:28:45.889Z,8.50
2017-09-18T14:31:13.459Z,8.43
2017-09-18T14:33:41.068Z,8.20
2017-09-18T14:36:08.867Z,8.87
2017-09-18T14:38:36.724Z,8.30
2017-09-18T14:41:04.296Z,8.60
2017-09-18T14:43:31.993Z,8.57
2017-09-18T14:45:59.636Z,8.67
2017-09-18T14:48:27.232Z,8.37
2017-09-18T14:50:54.856Z,9.00
2017-09-18T14:53:22.505Z,8.40
2017-09-18T14:55:50.104Z,8.57
2017-09-18T14:58:17.795Z,8.63
2017-09-18T15:00:45.403Z,8.60
2017-09-18T15:03:13.054Z,8.40
2017-09-18T15:05:40.676Z,8.33
2017-09-18T15:08:08.374Z,8.90
2017-09-18T15:10:36.008Z,8.30
2017-09-18T15:13:03.608Z,8.63
2017-09-18T15:15:31.343Z,8.57
2017-09-18T15:17:59.048Z,8.77
2017-09-18T15:20:27.008Z,8.50
2017-09-18T15:22:54.651Z,8.60
2017-09-18T15:25:22.263Z,8.30
2017-09-18T15:27:50.104Z,8.70
2017-09-18T15:30:17.735Z,8.63
2017-09-18T15:32:45.619Z,8.40
2017-09-18T15:35:13.263Z,8.83
2017-09-18T15:37:40.884Z,8.43
2017-09-18T15:40:08.597Z,8.80
2017-09-18T15:42:36.227Z,8.70
2017-09-18T15:45:04.146Z,8.40
2017-09-18T15:47:31.787Z,8.30
2017-09-18T15:49:59.384Z,8.40
2017-09-18T15:52:27.043Z,8.73
2017-09-18T15:54:54.647Z,8.37
2017-09-18T15:57:22.230Z,8.90
2017-09-18T15:59:49.909Z,8.40
2017-09-18T16:02:17.501Z,8.60
2017-09-18T16:04:45.150Z,8.60
2017-09-18T16:07:12.757Z,9.17
2017-09-18T16:09:40.668Z,8.40
2017-09-18T16:12:08.331Z,8.73
2017-09-18T16:14:36.116Z,8.47
2017-09-18T16:17:03.751Z,8.67
2017-09-18T16:19:31.325Z,8.80
2017-09-18T16:21:58.901Z,8.87
2017-09-18T16:24:26.517Z,8.57
2017-09-18T16:26:54.107Z,8.63
2017-09-18T16:29:21.766Z,8.40
2017-09-18T16:31:49.647Z,8.53
2017-09-18T16:34:17.506Z,8.30
2017-09-18T16:36:45.194Z,8.60
2017-09-18T16:39:12.801Z,8.90
2017-09-18T16:41:40.432Z,8.63
2017-09-18T16:44:08.029Z,8.97
2017-09-18T16:46:35.727Z,8.83
2017-09-18T16:49:03.349Z,8.67
2017-09-18T16:51:30.944Z,8.90
2017-09-18T16:53:58.574Z,8.90
2017-09-18T16:56:26.165Z,8.57
2017-09-18T16:58:53.752Z,9.30
2017-09-18T17:01:21.405Z,9.00
2017-09-18T17:03:49.262Z,9.07
2017-09-18T17:06:16.947Z,9.43
2017-09-18T17:08:44.562Z,9.40
2017-09-18T17:11:12.147Z,9.20
2017-09-18T17:13:39.728Z,9.20
2017-09-18T17:16:07.362Z,9.00
2017-09-18T17:18:35.250Z,9.70
2017-09-18T17:21:02.849Z,11.30
2017-09-18T17:23:30.868Z,10.30
2017-09-18T17:25:58.488Z,10.67
2017-09-18T17:28:26.135Z,11.87
2017-09-18T17:30:53.726Z,12.80
2017-09-18T17:33:21.612Z,12.00
2017-09-18T17:35:49.287Z,10.97
2017-09-18T17:38:16.939Z,11.20
2017-09-18T17:40:44.611Z,11.17
2017-09-18T17:43:12.226Z,11.00
2017-09-18T17:45:39.813Z,11.07
2017-09-18T17:48:07.436Z,11.07
2017-09-18T17:50:35.732Z,10.63
2017-09-18T17:53:03.638Z,10.87
2017-09-18T17:55:31.234Z,10.97
2017-09-18T17:57:58.839Z,11.53
2017-09-18T18:00:26.535Z,10.90
2017-09-18T18:02:54.183Z,10.30
2017-09-18T18:05:21.821Z,10.10
2017-09-18T18:07:49.441Z,10.30
2017-09-18T18:10:17.026Z,9.90
2017-09-18T18:12:44.656Z,11.17
2017-09-18T18:15:12.263Z,10.70
2017-09-18T18:17:39.958Z,10.77
2017-09-18T18:20:07.563Z,10.80
2017-09-18T18:22:35.494Z,10.90
2017-09-18T18:25:03.115Z,11.10
2017-09-18T18:27:30.752Z,10.97
2017-09-18T18:29:58.693Z,11.50
2017-09-18T18:32:26.304Z,12.00
2017-09-18T18:34:53.920Z,11.43
2017-09-18T18:37:21.550Z,12.00
2017-09-18T18:39:49.171Z,11.80
2017-09-18T18:42:17.435Z,11.67
2017-09-18T18:44:45.090Z,11.63
2017-09-18T18:47:12.719Z,11.87
2017-09-18T18:49:40.346Z,12.10
2017-09-18T18:52:07.947Z,13.30
2017-09-18T18:54:35.630Z,13.17
2017-09-18T18:57:03.230Z,12.27
2017-09-18T18:59:30.949Z,12.93
2017-09-18T19:01:58.650Z,11.83
2017-09-18T19:04:26.265Z,11.57
2017-09-18T19:06:53.896Z,12.17
2017-09-18T19:09:21.646Z,11.50
2017-09-18T19:11:49.578Z,12.73
2017-09-18T19:14:17.222Z,11.50
2017-09-18T19:16:44.808Z,12.43
2017-09-18T19:19:12.431Z,12.37
2017-09-18T19:21:40.024Z,12.97
2017-09-18T19:24:07.626Z,12.70
2017-09-18T19:26:35.271Z,11.80
2017-09-18T19:29:02.931Z,12.60
2017-09-18T19:31:30.590Z,12.27
2017-09-18T19:33:58.193Z,12.07
2017-09-18T19:36:25.794Z,11.53
2017-09-18T19:38:53.404Z,12.47
2017-09-18T19:41:21.017Z,13.23
2017-09-18T19:43:48.644Z,13.70
2017-09-18T19:46:16.235Z,12.50
2017-09-18T19:48:43.844Z,12.67
2017-09-18T19:51:11.462Z,13.67
2017-09-18T19:53:39.048Z,13.87
2017-09-18T19:56:06.673Z,12.37
2017-09-18T19:58:34.265Z,13.10
2017-09-18T20:01:02.086Z,13.13
2017-09-18T20:03:29.695Z,13.23
2017-09-18T20:05:57.543Z,12.60
2017-09-18T20:08:25.168Z,13.03
2017-09-18T20:10:52.808Z,12.40
2017-09-18T20:13:20.386Z,12.60
2017-09-18T20:15:48.308Z,13.07
2017-09-18T20:18:16.065Z,11.90
2017-09-18T20:20:43.716Z,12.30
2017-09-18T20:23:11.317Z,12.47
2017-09-18T20:25:39.156Z,12.70
2017-09-18T20:28:07.037Z,13.03
2017-09-18T20:30:35.435Z,13.13
2017-09-18T20:33:03.279Z,12.70
2017-09-18T20:35:30.860Z,12.17
2017-09-18T20:37:58.525Z,12.20
2017-09-18T20:40:26.155Z,12.93
2017-09-18T20:42:53.758Z,13.17
2017-09-18T20:45:21.380Z,12.83
2017-09-18T20:47:48.974Z,13.30
2017-09-18T20:50:16.812Z,12.53
2017-09-18T20:52:44.487Z,12.80
2017-09-18T20:55:12.071Z,13.63
2017-09-18T20:57:39.687Z,14.00
2017-09-18T21:00:07.280Z,14.30
2017-09-18T21:02:35.234Z,13.33
2017-09-18T21:05:02.849Z,13.60
2017-09-18T21:07:30.761Z,13.23
2017-09-18T21:09:58.402Z,13.10
2017-09-18T21:12:26.008Z,13.73
2017-09-18T21:14:53.646Z,13.43
2017-09-18T21:17:21.352Z,13.17
2017-09-18T21:19:49.027Z,13.33
2017-09-18T21:22:16.945Z,13.90
2017-09-18T21:24:44.558Z,13.70
2017-09-18T21:27:12.665Z,13.17
2017-09-18T21:29:40.306Z,13.57
2017-09-18T21:32:08.224Z,13.73
2017-09-18T21:34:36.011Z,13.50
2017-09-18T21:37:03.630Z,13.43
2017-09-18T21:39:31.276Z,13.77
2017-09-18T21:41:58.942Z,13.87
2017-09-18T21:44:26.546Z,13.30
2017-09-18T21:46:54.182Z,12.80
2017-09-18T21:49:22.066Z,14.80
2017-09-18T21:51:49.663Z,14.27
2017-09-18T21:54:17.286Z,15.30
2017-09-18T21:56:44.876Z,13.53
2017-09-18T21:59:12.495Z,12.70
2017-09-18T22:01:40.092Z,14.00
2017-09-18T22:04:07.932Z,14.70
2017-09-18T22:06:35.560Z,13.67
2017-09-18T22:09:03.135Z,13.50
2017-09-18T22:11:30.781Z,13.27
2017-09-18T22:13:58.506Z,13.30
2017-09-18T22:16:26.359Z,14.03
2017-09-18T22:18:53.985Z,13.53
2017-09-18T22:21:21.564Z,13.00
2017-09-18T22:23:49.558Z,12.80
2017-09-18T22:26:17.174Z,12.63
2017-09-18T22:28:44.755Z,13.23
2017-09-18T22:31:12.641Z,13.53
2017-09-18T22:33:40.308Z,13.10
2017-09-18T22:36:08.272Z,13.83
2017-09-18T22:38:36.145Z,14.53
2017-09-18T22:41:03.738Z,13.20
2017-09-18T22:43:31.352Z,12.87
2017-09-18T22:45:58.930Z,13.20
2017-09-18T22:48:26.560Z,13.30
2017-09-18T22:50:54.155Z,13.70
2017-09-18T22:53:21.740Z,13.63
2017-09-18T22:55:49.375Z,13.10
2017-09-18T22:58:16.953Z,13.40
2017-09-18T23:00:44.907Z,13.30
2017-09-18T23:03:12.508Z,13.00
2017-09-18T23:05:40.088Z,12.90
2017-09-18T23:08:07.705Z,13.30
2017-09-18T23:10:35.339Z,12.37
2017-09-18T23:13:02.963Z,12.97
2017-09-18T23:15:30.552Z,13.57
2017-09-18T23:17:58.126Z,12.60
2017-09-18T23:20:25.765Z,13.33
2017-09-18T23:22:53.373Z,13.43
2017-09-18T23:25:21.001Z,13.13
2017-09-18T23:27:48.592Z,13.40
2017-09-18T23:30:16.163Z,13.50
2017-09-18T23:32:43.770Z,14.80
2017-09-18T23:35:11.369Z,13.27
2017-09-18T23:37:38.988Z,13.40
2017-09-18T23:40:06.567Z,13.40
2017-09-18T23:42:34.168Z,13.47
2017-09-18T23:45:01.798Z,13.57
2017-09-18T23:47:29.679Z,13.03
2017-09-18T23:49:57.311Z,13.23
2017-09-18T23:52:24.976Z,12.57
2017-09-18T23:54:52.584Z,14.07
2017-09-18T23:57:20.199Z,12.83
2017-09-18T23:59:47.820Z,13.73
